地図

経路データ

SID SEASON NUMBER BASIN SUBBASIN NAME ISO_TIME NATURE LAT LON WMO_WIND WMO_PRES WMO_AGENCY TRACK_TYPE DIST2LAND LANDFALL IFLAG USA_AGENCY USA_ATCF_ID USA_LAT USA_LON USA_RECORD USA_STATUS USA_WIND USA_PRES USA_SSHS USA_R34_NE USA_R34_SE USA_R34_SW USA_R34_NW USA_R50_NE USA_R50_SE USA_R50_SW USA_R50_NW USA_R64_NE USA_R64_SE USA_R64_SW USA_R64_NW USA_POCI USA_ROCI USA_RMW USA_EYE TOKYO_LAT TOKYO_LON TOKYO_GRADE TOKYO_WIND TOKYO_PRES TOKYO_R50_DIR TOKYO_R50_LONG TOKYO_R50_SHORT TOKYO_R30_DIR TOKYO_R30_LONG TOKYO_R30_SHORT TOKYO_LAND CMA_LAT CMA_LON CMA_CAT CMA_WIND CMA_PRES HKO_LAT HKO_LON HKO_CAT HKO_WIND HKO_PRES NEWDELHI_LAT NEWDELHI_LON NEWDELHI_GRADE NEWDELHI_WIND NEWDELHI_PRES NEWDELHI_CI NEWDELHI_DP NEWDELHI_POCI REUNION_LAT REUNION_LON REUNION_TYPE REUNION_WIND REUNION_PRES REUNION_TNUM REUNION_CI REUNION_RMW REUNION_R34_NE REUNION_R34_SE REUNION_R34_SW REUNION_R34_NW REUNION_R50_NE REUNION_R50_SE REUNION_R50_SW REUNION_R50_NW REUNION_R64_NE REUNION_R64_SE REUNION_R64_SW REUNION_R64_NW BOM_LAT BOM_LON BOM_TYPE BOM_WIND BOM_PRES BOM_TNUM BOM_CI BOM_RMW BOM_R34_NE BOM_R34_SE BOM_R34_SW BOM_R34_NW BOM_R50_NE BOM_R50_SE BOM_R50_SW BOM_R50_NW BOM_R64_NE BOM_R64_SE BOM_R64_SW BOM_R64_NW BOM_ROCI BOM_POCI BOM_EYE BOM_POS_METHOD BOM_PRES_METHOD NADI_LAT NADI_LON NADI_CAT NADI_WIND NADI_PRES WELLINGTON_LAT WELLINGTON_LON WELLINGTON_WIND WELLINGTON_PRES DS824_LAT DS824_LON DS824_STAGE DS824_WIND DS824_PRES TD9636_LAT TD9636_LON TD9636_STAGE TD9636_WIND TD9636_PRES TD9635_LAT TD9635_LON TD9635_WIND TD9635_PRES TD9635_ROCI NEUMANN_LAT NEUMANN_LON NEUMANN_CLASS NEUMANN_WIND NEUMANN_PRES MLC_LAT MLC_LON MLC_CLASS MLC_WIND MLC_PRES USA_GUST BOM_GUST BOM_GUST_PER REUNION_GUST REUNION_GUST_PER USA_SEAHGT USA_SEARAD_NE USA_SEARAD_SE USA_SEARAD_SW USA_SEARAD_NW STORM_SPEED STORM_DIR
2003279N18118 2003 84 WP MM NOT_NAMED 2003-10-06 00:00:00 TS 18.4000 117.600 main 299 299 O_____________ jtwc_wp WP182003 18.4000 117.600 TD 15 1006 -1 5 275
2003279N18118 2003 84 WP MM NOT_NAMED 2003-10-06 03:00:00 TS 18.4201 117.338 main 329 329 P_____________ WP182003 18.4201 117.338 TD 15 1006 -1 5 270
2003279N18118 2003 84 WP MM NOT_NAMED 2003-10-06 06:00:00 TS 18.4000 117.100 main 350 350 O_____________ jtwc_wp WP182003 18.4000 117.100 TD 15 1006 -1 4 256
2003279N18118 2003 84 WP MM NOT_NAMED 2003-10-06 09:00:00 TS 18.3149 116.900 main 368 368 P_____________ WP182003 18.3149 116.900 TD 15 1006 -1 4 242
2003279N18118 2003 84 WP MM NOT_NAMED 2003-10-06 12:00:00 TS 18.2000 116.700 main 386 386 O_____________ jtwc_wp WP182003 18.2000 116.700 TD 15 1006 -1 5 244
2003279N18118 2003 84 WP MM NOT_NAMED 2003-10-06 15:00:00 TS 18.1075 116.458 main 404 404 P_____________ WP182003 18.1075 116.458 TD 20 1006 -1 5 247
2003279N18118 2003 84 WP MM NOT_NAMED 2003-10-06 18:00:00 TS 18.0000 116.200 main 427 427 O_____________ jtwc_wp WP182003 18.0000 116.200 TD 25 1006 -1 1010 100 20 5 243
2003279N18118 2003 84 WP MM NOT_NAMED 2003-10-06 21:00:00 TS 17.8650 115.950 main 441 441 P_____________ WP182003 17.8650 115.950 TD 25 1004 -1 1008 110 32 6 238
2003279N18118 2003 84 WP MM NOT_NAMED 2003-10-07 00:00:00 TS 17.7000 115.700 main 463 463 O_____________ jtwc_wp WP182003 17.7000 115.700 TD 25 1002 -1 1007 120 45 6 234
2003279N18118 2003 84 WP MM NOT_NAMED 2003-10-07 03:00:00 TS 17.5000 115.427 main 487 484 P_____________ WP182003 17.5000 115.427 TD 25 1002 -1 1007 120 45 6 230
2003279N18118 2003 84 WP MM NOT_NAMED 2003-10-07 06:00:00 TS 17.3000 115.200 main 501 501 O_____________ jtwc_wp WP182003 17.3000 115.200 TD 25 1002 -1 1007 120 45 5 224
2003279N18118 2003 84 WP MM NOT_NAMED 2003-10-07 09:00:00 TS 17.1124 115.040 main 506 506 P_____________ WP182003 17.1124 115.040 TD 25 1002 -1 1007 120 45 4 212
2003279N18118 2003 84 WP MM NOT_NAMED 2003-10-07 12:00:00 TS 17.0000 115.000 main 512 503 O_O___________ jtwc_wp WP182003 17.0000 115.000 TD 25 1002 -1 1007 120 45 17.0000 115.000 1 29 1004 2 160
2003279N18118 2003 84 WP MM NOT_NAMED 2003-10-07 15:00:00 TS 16.9509 115.093 main 503 490 P_P___________ WP182003 17.0051 115.128 TD 25 1002 -1 1007 120 47 16.8425 115.025 1 29 1004 2 98
2003279N18118 2003 84 WP MM NOT_NAMED 2003-10-07 18:00:00 TS 16.9714 115.214 main 492 482 O_O___________ jtwc_wp WP182003 17.1000 115.300 TD 25 1003 -1 1007 120 50 16.8000 115.100 1 29 1004 2 55
2003279N18118 2003 84 WP MM NOT_NAMED 2003-10-07 21:00:00 TS 17.0912 115.305 main 484 477 P_P___________ WP182003 17.2350 115.373 TD 25 1002 -1 1007 120 50 16.9475 115.237 1 29 1004 4 22
2003279N18118 2003 84 WP MM NOT_NAMED 2003-10-08 00:00:00 TS 17.3000 115.350 main 480 480 O_O___________ jtwc_wp WP182003 17.4000 115.400 TD 25 1002 -1 1007 120 50 17.2000 115.300 1 29 1004 4 352
2003279N18118 2003 84 WP MM NOT_NAMED 2003-10-08 03:00:00 TS 17.5076 115.246 main 501 490 P_P___________ WP182003 17.5500 115.408 TD 25 1002 -1 1007 120 47 17.4651 115.085 1 26 1004 4 335
2003279N18118 2003 84 WP MM NOT_NAMED 2003-10-08 06:00:00 TS 17.7000 115.150 main 490 481 O_O___________ jtwc_wp WP182003 17.7000 115.400 TD 25 1002 -1 1007 120 45 17.7000 114.900 1 23 1005 4 357
2003279N18118 2003 84 WP MM NOT_NAMED 2003-10-08 09:00:00 TS 17.8588 115.239 main 481 481 P_P___________ WP182003 17.8500 115.407 TD 25 1002 -1 1007 120 45 17.8676 115.070 1 23 1005 3 37
2003279N18118 2003 84 WP MM NOT_NAMED 2003-10-08 12:00:00 TS 17.9500 115.350 main 494 494 O_O___________ jtwc_wp WP182003 18.0000 115.400 TD 25 1002 -1 1007 120 45 17.9000 115.300 1 23 1005 1 60
2003279N18118 2003 84 WP MM NOT_NAMED 2003-10-08 15:00:00 TS 17.9175 115.351 main 500 491 P_P___________ WP182003 18.1425 115.358 TD 25 1002 -1 1007 120 45 17.6925 115.345 1 23 1005 1 223
2003279N18118 2003 84 WP MM NOT_NAMED 2003-10-08 18:00:00 TS 17.9000 115.300 main 491 476 O_O___________ jtwc_wp WP182003 18.3000 115.300 TD 25 1002 -1 1008 120 45 17.5000 115.300 1 23 1005 2 318
2003279N18118 2003 84 WP MM NOT_NAMED 2003-10-08 21:00:00 TS 18.0450 115.229 main 476 468 P_P___________ WP182003 18.4925 115.235 TD 25 1002 -1 1008 120 45 17.5975 115.223 1 23 1005 4 338
2003279N18118 2003 84 WP MM NOT_NAMED 2003-10-09 00:00:00 TS 18.2500 115.150 main 457 444 O_O___________ jtwc_wp WP182003 18.7000 115.200 TD 25 1002 -1 1008 120 45 17.8000 115.100 1 23 1005 4 341
2003279N18118 2003 84 WP MM NOT_NAMED 2003-10-09 03:00:00 TS 18.4363 115.089 main 444 422 P_P___________ WP182003 18.9000 115.242 TD 25 1002 -1 1008 120 45 17.9725 114.935 1 23 1005 4 345
2003279N18118 2003 84 WP MM NOT_NAMED 2003-10-09 06:00:00 TS 18.6000 115.050 main 422 409 O_O___________ jtwc_wp WP182003 19.1000 115.300 TD 25 1002 -1 1008 120 45 18.1000 114.800 1 23 1005 3 351
2003279N18118 2003 84 WP MM NOT_NAMED 2003-10-09 09:00:00 TS 18.6925 115.046 main 409 398 P_P___________ WP182003 19.3150 115.315 TD 25 1002 -1 1008 120 45 18.0700 114.777 1 23 1005 2 8
2003279N18118 2003 84 WP MM NOT_NAMED 2003-10-09 12:00:00 TS 18.8000 115.050 main 400 376 O_O___________ jtwc_wp WP182003 19.5000 115.300 TD 25 1002 -1 1008 120 45 18.1000 114.800 1 23 1005 3 0
2003279N18118 2003 84 WP MM NOT_NAMED 2003-10-09 15:00:00 TS 18.9950 115.036 main 376 343 P_P___________ WP182003 19.6150 115.265 TD 25 1002 -1 1008 120 45 18.3750 114.807 1 23 1005 5 359
2003279N18118 2003 84 WP MM NOT_NAMED 2003-10-09 18:00:00 TS 19.3143 115.029 main 343 310 O_O___________ jtwc_wp WP182003 19.7000 115.200 TD 25 1002 -1 1008 120 45 18.8000 114.800 1 23 1005 6 356
2003279N18118 2003 84 WP MM NOT_NAMED 2003-10-09 21:00:00 TS 19.6241 115.002 main 310 275 P_P___________ WP182003 19.7925 115.122 TD 25 1002 -1 1008 120 45 19.2875 114.760 1 23 1005 6 352
2003279N18118 2003 84 WP MM NOT_NAMED 2003-10-10 00:00:00 TS 19.8800 114.940 main 275 264 O_O___________ jtwc_wp WP182003 19.9000 115.000 TD 25 1002 -1 1008 120 45 19.8000 114.700 1 23 1005 4 340
2003279N18118 2003 84 WP MM NOT_NAMED 2003-10-10 03:00:00 TS 20.0199 114.845 main 262 236 P_____________ WP182003 20.0199 114.845 TD 25 1002 -1 1008 120 45 1 5 315
2003279N18118 2003 84 WP MM NOT_NAMED 2003-10-10 06:00:00 TS 20.2000 114.600 main 236 201 O_____________ jtwc_wp WP182003 20.2000 114.600 TD 25 1002 -1 1008 120 45 7 311
2003279N18118 2003 84 WP MM NOT_NAMED 2003-10-10 09:00:00 TS 20.5075 114.245 main 199 148 P_____________ WP182003 20.5075 114.245 TD 25 1002 -1 10 309
2003279N18118 2003 84 WP MM NOT_NAMED 2003-10-10 12:00:00 TS 20.8000 113.800 main 148 116 O_____________ jtwc_wp WP182003 20.8000 113.800 TD 25 1002 -1 10 294
2003279N18118 2003 84 WP MM NOT_NAMED 2003-10-10 15:00:00 TS 20.8926 113.299 main 116 91 P_____________ WP182003 20.8926 113.299 TD 25 1002 -1 10 282
2003279N18118 2003 84 WP MM NOT_NAMED 2003-10-10 18:00:00 TS 21.0000 112.800 main 91 45 O_____________ jtwc_wp WP182003 21.0000 112.800 TD 25 1002 -1 10 295
2003279N18118 2003 84 WP MM NOT_NAMED 2003-10-10 21:00:00 TS 21.2900 112.376 main 45 10 P_____________ WP182003 21.2900 112.376 TD 25 1002 -1 10 313
2003279N18118 2003 84 WP MM NOT_NAMED 2003-10-11 00:00:00 TS 21.7000 112.000 main 10 O_____________ jtwc_wp WP182003 21.7000 112.000 TD 25 1002 -1 11 320

デジタル台風データ・検索

IBTrACS Databaseについて

本データベースは、米国NOAAが公開する1842年以降の世界の熱帯低気圧のベストトラックデータアーカイブInternational Best Track Archive for Climate Stewardship (IBTrACS)を、ウェブで閲覧しやすい形式に変換したものです。

最終更新日:2021-10-21